Time;durP1;ratioP1;P1;durP2;ratioP2;P2;SDS_P1;SDS_P2;PMS_P1;PMS_P2;Temp;Humidity;BMP_temperature;BMP_pressure;BME280_temperature;BME280_humidity;BME280_pressure;Samples;Min_cycle;Max_cycle;Signal;HPM_P1;HPM_P2
2022/02/07 00:00:25;;;;;;;13.63;2.28;;;;;;;;;;5042728;28;20136;-64
2022/02/07 00:05:28;;;;;;;19.60;2.65;;;;;;;;;;5046117;28;20192;-64
2022/02/07 00:07:56;;;;;;;25.73;3.35;;;;;;;;;;5045346;28;20052;-64
2022/02/07 00:10:23;;;;;;;17.17;2.63;;;;;;;;;;5040447;28;20144;-64
2022/02/07 00:12:56;;;;;;;16.00;2.42;;;;;;;;;;5045124;28;20053;-64
2022/02/07 00:15:22;;;;;;;17.92;4.10;;;;;;;;;;5045440;28;20132;-64
2022/02/07 00:17:49;;;;;;;20.42;2.20;;;;;;;;;;5044372;28;20046;-64
2022/02/07 00:20:24;;;;;;;15.75;1.98;;;;;;;;;;5046588;28;20489;-64
2022/02/07 00:22:51;;;;;;;19.73;2.60;;;;;;;;;;5044836;28;20687;-64
2022/02/07 00:25:18;;;;;;;15.25;2.95;;;;;;;;;;5045321;28;20136;-64
2022/02/07 00:27:46;;;;;;;23.50;2.75;;;;;;;;;;5044482;28;20132;-64
2022/02/07 00:30:14;;;;;;;19.17;2.27;;;;;;;;;;5048270;28;20077;-64
2022/02/07 00:32:40;;;;;;;;;;;;;;;;;;5042858;28;20936;-64
2022/02/07 00:35:13;;;;;;;;;;;;;;;;;;5046707;28;20353;-64
2022/02/07 00:37:41;;;;;;;12.50;1.75;;;;;;;;;;5042784;28;19960;-63
2022/02/07 00:42:52;;;;;;;24.48;2.08;;;;;;;;;;5046834;28;20135;-64
2022/02/07 00:45:37;;;;;;;16.42;2.10;;;;;;;;;;5044240;28;20081;-64
2022/02/07 00:48:10;;;;;;;18.30;2.08;;;;;;;;;;5044364;28;20124;-64
2022/02/07 00:50:38;;;;;;;18.90;1.98;;;;;;;;;;5042911;28;20076;-64
2022/02/07 00:53:05;;;;;;;25.35;2.85;;;;;;;;;;5044121;28;20563;-64
2022/02/07 00:55:33;;;;;;;16.25;1.95;;;;;;;;;;5045789;28;20091;-64
2022/02/07 00:57:59;;;;;;;22.38;3.03;;;;;;;;;;5045395;28;20769;-64
2022/02/07 01:00:25;;;;;;;19.52;2.42;;;;;;;;;;5045053;28;20087;-64
2022/02/07 01:02:59;;;;;;;20.73;2.42;;;;;;;;;;5042851;28;20225;-63
2022/02/07 01:05:26;;;;;;;12.38;1.45;;;;;;;;;;5040947;28;20091;-64
2022/02/07 01:07:53;;;;;;;13.73;2.10;;;;;;;;;;5040447;28;20057;-63
2022/02/07 01:10:26;;;;;;;20.40;2.10;;;;;;;;;;5041710;28;20424;-63
2022/02/07 01:15:48;;;;;;;16.98;2.38;;;;;;;;;;5045818;28;20619;-64
2022/02/07 01:48:56;;;;;;;14.48;1.95;;;;;;;;;;5046004;28;20131;-64
2022/02/07 01:54:13;;;;;;;13.95;1.85;;;;;;;;;;5044390;28;20135;-64
2022/02/07 01:56:40;;;;;;;13.05;1.98;;;;;;;;;;5041164;28;20102;-64
2022/02/07 01:59:07;;;;;;;22.00;2.10;;;;;;;;;;5042753;28;20124;-64
2022/02/07 02:01:36;;;;;;;19.67;2.13;;;;;;;;;;5042149;28;20144;-64
2022/02/07 02:04:07;;;;;;;10.43;2.35;;;;;;;;;;5043264;28;20091;-64
2022/02/07 02:06:37;;;;;;;12.05;1.75;;;;;;;;;;5042243;28;20098;-64
2022/02/07 02:09:04;;;;;;;21.50;1.88;;;;;;;;;;5043721;28;20087;-64
2022/02/07 02:11:33;;;;;;;15.00;1.65;;;;;;;;;;5041353;28;20653;-64
2022/02/07 02:14:19;;;;;;;12.65;1.75;;;;;;;;;;5040314;28;20637;-64
2022/02/07 02:17:05;;;;;;;7.00;1.27;;;;;;;;;;5042629;28;20084;-64
2022/02/07 02:33:53;;;;;;;18.10;2.08;;;;;;;;;;5040311;28;20084;-64
2022/02/07 02:45:23;;;;;;;19.90;1.85;;;;;;;;;;5043430;28;20133;-64
2022/02/07 02:47:18;;;;;;;13.07;1.52;;;;;;;;;;5044630;28;20140;-64
2022/02/07 02:50:05;;;;;;;19.98;1.90;;;;;;;;;;5040787;28;20164;-64
2022/02/07 02:52:32;;;;;;;15.57;1.60;;;;;;;;;;5040181;28;20115;-64
2022/02/07 02:54:58;;;;;;;19.25;1.70;;;;;;;;;;5039546;28;20086;-64
2022/02/07 02:57:25;;;;;;;10.10;1.30;;;;;;;;;;5039764;28;20452;-64
2022/02/07 02:59:51;;;;;;;9.88;1.80;;;;;;;;;;5040051;28;20049;-64
2022/02/07 03:02:18;;;;;;;10.93;1.60;;;;;;;;;;5040128;28;20072;-64
2022/02/07 03:04:45;;;;;;;6.80;1.73;;;;;;;;;;5040909;28;20123;-64
2022/02/07 03:07:11;;;;;;;11.40;2.47;;;;;;;;;;5039599;28;20175;-64
2022/02/07 03:09:46;;;;;;;19.23;2.33;;;;;;;;;;5039713;28;20148;-64
2022/02/07 03:12:13;;;;;;;10.43;1.77;;;;;;;;;;5040003;28;20133;-64
2022/02/07 03:14:44;;;;;;;13.73;1.83;;;;;;;;;;5037013;28;20053;-64
2022/02/07 03:17:11;;;;;;;15.35;1.77;;;;;;;;;;5038986;28;20063;-64
2022/02/07 03:19:37;;;;;;;8.20;1.90;;;;;;;;;;5038878;28;20138;-64
2022/02/07 03:22:04;;;;;;;8.32;1.17;;;;;;;;;;5040916;28;20427;-64
2022/02/07 03:24:30;;;;;;;13.15;1.55;;;;;;;;;;5040576;28;20125;-63
2022/02/07 03:26:57;;;;;;;19.00;1.50;;;;;;;;;;5041992;28;20132;-64
2022/02/07 03:29:24;;;;;;;8.77;1.80;;;;;;;;;;5043147;28;20772;-64
2022/02/07 03:31:50;;;;;;;7.75;1.58;;;;;;;;;;5040128;28;20053;-64
2022/02/07 03:34:17;;;;;;;10.30;1.50;;;;;;;;;;5045966;28;20839;-64
2022/02/07 03:36:44;;;;;;;16.40;1.80;;;;;;;;;;5043818;28;20059;-63
2022/02/07 03:39:11;;;;;;;14.77;1.60;;;;;;;;;;5042766;28;20069;-64
2022/02/07 03:41:37;;;;;;;5.47;1.37;;;;;;;;;;5042927;28;20158;-64
2022/02/07 03:44:04;;;;;;;6.47;1.45;;;;;;;;;;5042828;28;20132;-64
2022/02/07 03:46:31;;;;;;;14.57;1.40;;;;;;;;;;5046556;28;20048;-64
2022/02/07 03:48:57;;;;;;;11.25;1.77;;;;;;;;;;5038230;28;20095;-64
2022/02/07 03:51:24;;;;;;;6.75;1.13;;;;;;;;;;5040800;28;20129;-64
2022/02/07 03:53:50;;;;;;;10.00;1.60;;;;;;;;;;5041595;28;20131;-64
2022/02/07 03:56:17;;;;;;;10.57;1.60;;;;;;;;;;5040950;28;20081;-64
2022/02/07 03:58:44;;;;;;;13.48;1.58;;;;;;;;;;5041989;28;20328;-64
2022/02/07 04:01:11;;;;;;;9.15;0.90;;;;;;;;;;5043489;28;20746;-63
2022/02/07 04:03:38;;;;;;;14.23;1.38;;;;;;;;;;5047398;28;20080;-64
2022/02/07 04:06:10;;;;;;;10.30;1.67;;;;;;;;;;5029307;28;20085;-64
2022/02/07 04:08:42;;;;;;;11.02;1.60;;;;;;;;;;5043491;28;20128;-64
2022/02/07 04:13:54;;;;;;;15.60;2.22;;;;;;;;;;5048281;28;20131;-64
2022/02/07 04:16:23;;;;;;;12.85;1.70;;;;;;;;;;5046091;28;20076;-63
2022/02/07 04:19:00;;;;;;;14.57;1.63;;;;;;;;;;5046895;28;20057;-64
2022/02/07 04:21:29;;;;;;;11.27;1.73;;;;;;;;;;5045101;28;20045;-64
2022/02/07 04:23:56;;;;;;;7.70;1.55;;;;;;;;;;5041449;28;20084;-64
2022/02/07 04:26:23;;;;;;;18.80;2.05;;;;;;;;;;5044343;28;20139;-63
2022/02/07 04:28:56;;;;;;;10.38;1.40;;;;;;;;;;5041274;28;20056;-63
2022/02/07 04:31:22;;;;;;;13.07;1.93;;;;;;;;;;5042462;28;20142;-64
2022/02/07 04:33:49;;;;;;;10.57;1.47;;;;;;;;;;5043891;28;20076;-64
2022/02/07 04:36:22;;;;;;;11.65;2.42;;;;;;;;;;5044275;28;20176;-64
2022/02/07 04:38:49;;;;;;;16.15;1.73;;;;;;;;;;5041910;28;20072;-64
2022/02/07 04:41:15;;;;;;;17.05;2.58;;;;;;;;;;5040306;28;20127;-64
2022/02/07 04:43:54;;;;;;;20.40;2.03;;;;;;;;;;5042218;28;20120;-64
2022/02/07 04:46:36;;;;;;;8.70;1.50;;;;;;;;;;5042149;28;20045;-64
2022/02/07 04:54:53;;;;;;;9.65;1.98;;;;;;;;;;4988292;28;20471;-64
2022/02/07 04:57:44;;;;;;;13.82;1.70;;;;;;;;;;5034998;28;20131;-64
2022/02/07 05:02:54;;;;;;;13.00;1.75;;;;;;;;;;5042670;28;20148;-64
2022/02/07 05:13:39;;;;;;;5.93;1.60;;;;;;;;;;5041214;28;20165;-64
2022/02/07 05:13:47;;;;;;;9.40;1.83;;;;;;;;;;5042661;28;20131;-64
2022/02/07 05:16:23;;;;;;;10.23;1.92;;;;;;;;;;5040284;28;20441;-64
2022/02/07 05:18:53;;;;;;;8.55;1.63;;;;;;;;;;5042104;28;20080;-64
2022/02/07 05:21:20;;;;;;;9.18;1.73;;;;;;;;;;5042307;28;20167;-65
2022/02/07 05:23:47;;;;;;;3.97;1.30;;;;;;;;;;5038993;28;20164;-64
2022/02/07 05:26:13;;;;;;;6.30;1.10;;;;;;;;;;5040686;28;20123;-64
2022/02/07 05:28:47;;;;;;;4.28;1.38;;;;;;;;;;5039180;28;20136;-63
2022/02/07 05:31:14;;;;;;;7.77;1.60;;;;;;;;;;5040727;28;20106;-64
2022/02/07 05:33:40;;;;;;;7.22;1.40;;;;;;;;;;5043906;28;20124;-64
2022/02/07 05:36:10;;;;;;;16.00;1.73;;;;;;;;;;5039776;28;20037;-64
2022/02/07 05:38:38;;;;;;;13.23;1.42;;;;;;;;;;5041823;28;20055;-64
2022/02/07 05:41:06;;;;;;;9.18;1.73;;;;;;;;;;5043334;28;20464;-64
2022/02/07 05:43:44;;;;;;;6.10;1.33;;;;;;;;;;5041985;28;20140;-64
2022/02/07 05:46:10;;;;;;;9.80;1.45;;;;;;;;;;5043630;28;20060;-64
2022/02/07 05:48:37;;;;;;;14.93;1.50;;;;;;;;;;5040682;28;20073;-64
2022/02/07 05:51:10;;;;;;;18.50;2.90;;;;;;;;;;5038734;28;20103;-64
2022/02/07 05:53:36;;;;;;;8.88;1.63;;;;;;;;;;5037820;28;20135;-64
2022/02/07 05:56:03;;;;;;;7.55;1.40;;;;;;;;;;5035481;28;20136;-64
2022/02/07 05:58:36;;;;;;;5.35;1.67;;;;;;;;;;5038467;28;20076;-64
2022/02/07 06:01:02;;;;;;;8.65;1.92;;;;;;;;;;5038119;28;20052;-64
2022/02/07 06:03:29;;;;;;;12.20;2.65;;;;;;;;;;5035436;28;20072;-64
2022/02/07 06:05:56;;;;;;;10.13;1.42;;;;;;;;;;5039655;28;20118;-64
2022/02/07 06:08:23;;;;;;;7.50;1.60;;;;;;;;;;5041359;28;20088;-64
2022/02/07 06:10:49;;;;;;;7.18;2.20;;;;;;;;;;5042780;28;20825;-64
2022/02/07 06:13:17;;;;;;;8.95;1.67;;;;;;;;;;5042093;28;20506;-64
2022/02/07 06:15:44;;;;;;;11.63;1.70;;;;;;;;;;5036329;28;20156;-63
2022/02/07 06:18:13;;;;;;;16.57;2.07;;;;;;;;;;5040513;28;20045;-64
2022/02/07 06:20:43;;;;;;;12.63;2.05;;;;;;;;;;5043486;28;20505;-64
2022/02/07 06:23:09;;;;;;;8.35;1.48;;;;;;;;;;5046046;28;20076;-64
2022/02/07 06:25:36;;;;;;;8.25;1.60;;;;;;;;;;5037856;28;20049;-64
2022/02/07 06:28:09;;;;;;;10.40;2.15;;;;;;;;;;5037822;28;20584;-64
2022/02/07 06:30:35;;;;;;;9.57;1.70;;;;;;;;;;5036157;28;20049;-64
2022/02/07 06:33:01;;;;;;;14.65;2.78;;;;;;;;;;5035954;28;20059;-63
2022/02/07 06:35:28;;;;;;;12.65;1.90;;;;;;;;;;5036831;28;20571;-64
2022/02/07 06:37:55;;;;;;;9.65;1.80;;;;;;;;;;5036472;28;20116;-64
2022/02/07 06:40:22;;;;;;;11.50;2.28;;;;;;;;;;5035437;28;20484;-64
2022/02/07 06:42:50;;;;;;;5.70;1.50;;;;;;;;;;5039472;28;20483;-64
2022/02/07 06:45:16;;;;;;;10.95;1.65;;;;;;;;;;5039515;28;20124;-64
2022/02/07 06:47:43;;;;;;;10.55;2.00;;;;;;;;;;5036547;28;20143;-64
2022/02/07 06:50:16;;;;;;;9.13;2.28;;;;;;;;;;5037434;28;20267;-64
2022/02/07 06:52:42;;;;;;;9.23;2.15;;;;;;;;;;5038105;28;20048;-64
2022/02/07 06:55:09;;;;;;;6.60;1.50;;;;;;;;;;5035831;28;20163;-64
2022/02/07 06:57:42;;;;;;;9.43;1.63;;;;;;;;;;5035640;28;20307;-64
2022/02/07 07:00:10;;;;;;;13.25;2.30;;;;;;;;;;5037173;28;20488;-64
2022/02/07 07:02:38;;;;;;;12.82;2.72;;;;;;;;;;5028822;28;20153;-64
2022/02/07 07:05:14;;;;;;;7.60;1.70;;;;;;;;;;5017726;28;20495;-64
2022/02/07 07:07:42;;;;;;;8.93;1.88;;;;;;;;;;5016824;28;20135;-64
2022/02/07 07:10:09;;;;;;;12.35;2.25;;;;;;;;;;5016239;28;20510;-64
2022/02/07 07:12:45;;;;;;;9.68;1.70;;;;;;;;;;5017917;28;20049;-64
2022/02/07 07:15:26;;;;;;;10.15;1.77;;;;;;;;;;5017904;28;20044;-64
2022/02/07 07:17:57;;;;;;;11.52;1.85;;;;;;;;;;5018769;28;20061;-65
2022/02/07 07:20:23;;;;;;;8.60;1.70;;;;;;;;;;5022048;28;20129;-64
2022/02/07 07:22:49;;;;;;;13.65;1.83;;;;;;;;;;5021692;28;20569;-64
2022/02/07 07:25:23;;;;;;;11.68;2.45;;;;;;;;;;5017284;28;20132;-64
2022/02/07 07:28:01;;;;;;;10.00;1.75;;;;;;;;;;5016998;28;20069;-64
2022/02/07 07:30:31;;;;;;;;;;;;;;;;;;5016885;28;20065;-64
2022/02/07 07:33:02;;;;;;;8.77;1.77;;;;;;;;;;5016758;28;19979;-64
2022/02/07 07:35:29;;;;;;;14.13;2.10;;;;;;;;;;5019971;28;20497;-64
2022/02/07 07:37:55;;;;;;;9.53;2.20;;;;;;;;;;5020314;28;20053;-65
2022/02/07 07:40:22;;;;;;;12.65;1.88;;;;;;;;;;5021106;28;20075;-64
2022/02/07 07:42:56;;;;;;;15.15;2.60;;;;;;;;;;5022271;28;20160;-64
2022/02/07 07:45:25;;;;;;;;;;;;;;;;;;5022451;28;20041;-64
2022/02/07 07:47:57;;;;;;;9.80;2.17;;;;;;;;;;5020014;28;20023;-64
2022/02/07 07:50:41;;;;;;;14.40;1.92;;;;;;;;;;5020265;28;20140;-64
2022/02/07 08:03:45;;;;;;;8.35;2.67;;;;;;;;;;5021439;28;20142;-64
2022/02/07 08:09:13;;;;;;;6.57;1.33;;;;;;;;;;5023242;28;20053;-64
2022/02/07 08:11:39;;;;;;;9.73;2.63;;;;;;;;;;5021253;28;20471;-64
2022/02/07 08:14:06;;;;;;;10.50;2.13;;;;;;;;;;5025468;28;20141;-64
2022/02/07 08:16:32;;;;;;;7.57;1.40;;;;;;;;;;5022989;28;20133;-64
2022/02/07 08:19:05;;;;;;;13.27;2.10;;;;;;;;;;5024118;28;20136;-65
2022/02/07 08:21:35;;;;;;;9.77;1.80;;;;;;;;;;5022217;28;20315;-64
2022/02/07 08:24:02;;;;;;;12.23;2.40;;;;;;;;;;5020106;28;20059;-64
2022/02/07 08:26:29;;;;;;;20.30;2.17;;;;;;;;;;5020388;28;20172;-64
2022/02/07 08:28:55;;;;;;;12.40;2.65;;;;;;;;;;5022934;28;20055;-64
2022/02/07 08:31:24;;;;;;;15.43;2.75;;;;;;;;;;5017029;28;20081;-64
2022/02/07 08:33:51;;;;;;;17.88;2.60;;;;;;;;;;5020471;28;20139;-64
2022/02/07 08:36:17;;;;;;;12.20;1.67;;;;;;;;;;5028607;28;20115;-64
2022/02/07 08:38:46;;;;;;;17.77;2.00;;;;;;;;;;5010406;28;20546;-64
2022/02/07 08:41:12;;;;;;;16.95;2.15;;;;;;;;;;5026872;28;20077;-64
2022/02/07 08:43:38;;;;;;;13.55;2.78;;;;;;;;;;5023759;28;20136;-64
2022/02/07 08:46:12;;;;;;;10.38;2.42;;;;;;;;;;5022349;28;20063;-64
2022/02/07 08:48:38;;;;;;;10.23;1.92;;;;;;;;;;5025262;28;20133;-64
2022/02/07 08:51:06;;;;;;;11.40;2.00;;;;;;;;;;5022130;28;20129;-64
2022/02/07 08:53:42;;;;;;;9.70;2.10;;;;;;;;;;5022410;28;20081;-64
2022/02/07 08:56:09;;;;;;;17.42;3.15;;;;;;;;;;5027127;28;20137;-65
2022/02/07 08:58:38;;;;;;;12.95;2.13;;;;;;;;;;5022869;28;20085;-64
2022/02/07 09:01:26;;;;;;;5.68;1.50;;;;;;;;;;5025535;28;20050;-65
2022/02/07 09:11:32;;;;;;;10.95;2.08;;;;;;;;;;5047321;28;20148;-65
2022/02/07 09:14:01;;;;;;;9.25;2.13;;;;;;;;;;5044807;28;20128;-64
2022/02/07 09:16:30;;;;;;;11.10;2.20;;;;;;;;;;5041259;28;20138;-65
2022/02/07 09:18:59;;;;;;;10.63;1.90;;;;;;;;;;5043857;28;20560;-65
2022/02/07 09:21:28;;;;;;;8.35;2.95;;;;;;;;;;5043473;28;20077;-65
2022/02/07 09:23:58;;;;;;;10.10;2.20;;;;;;;;;;5040043;28;20131;-65
2022/02/07 09:26:27;;;;;;;10.20;1.83;;;;;;;;;;5048310;28;20041;-65
2022/02/07 09:28:53;;;;;;;7.22;1.80;;;;;;;;;;5040557;28;20080;-66
2022/02/07 09:31:21;;;;;;;10.00;2.00;;;;;;;;;;5045140;28;20128;-65
2022/02/07 09:33:57;;;;;;;12.98;2.15;;;;;;;;;;5047241;28;20122;-65
2022/02/07 09:36:24;;;;;;;9.43;2.15;;;;;;;;;;5039311;28;20069;-65
2022/02/07 09:38:51;;;;;;;7.47;1.60;;;;;;;;;;5040442;28;20148;-65
2022/02/07 09:41:22;;;;;;;7.18;1.35;;;;;;;;;;5039403;28;20124;-65
2022/02/07 09:43:49;;;;;;;;;;;;;;;;;;5039559;28;20136;-65
2022/02/07 09:46:34;;;;;;;14.13;2.05;;;;;;;;;;5040306;28;19932;-65
2022/02/07 09:49:02;;;;;;;8.45;2.17;;;;;;;;;;5041454;28;20052;-65
2022/02/07 09:51:28;;;;;;;;;;;;;;;;;;5040828;28;20136;-65
2022/02/07 09:53:55;;;;;;;11.40;1.58;;;;;;;;;;5039362;28;20007;-65
2022/02/07 09:56:23;;;;;;;7.75;2.28;;;;;;;;;;5039712;28;20262;-65
2022/02/07 09:58:52;;;;;;;;;;;;;;;;;;5041788;28;20143;-65
2022/02/07 10:01:26;;;;;;;8.00;1.85;;;;;;;;;;5041532;28;19983;-65
2022/02/07 10:04:12;;;;;;;14.90;2.30;;;;;;;;;;5038858;28;20260;-65
2022/02/07 10:17:37;;;;;;;7.20;1.27;;;;;;;;;;5043151;28;20505;-65
2022/02/07 10:39:52;;;;;;;7.55;1.95;;;;;;;;;;5045979;28;20562;-65
2022/02/07 10:45:04;;;;;;;8.05;1.67;;;;;;;;;;5040518;28;20511;-65
2022/02/07 10:47:47;;;;;;;13.18;2.20;;;;;;;;;;5042112;28;20103;-65
2022/02/07 10:50:15;;;;;;;16.38;2.85;;;;;;;;;;5044212;28;20560;-65
2022/02/07 10:52:55;;;;;;;9.57;1.88;;;;;;;;;;5043405;28;20056;-65
2022/02/07 10:55:23;;;;;;;10.63;1.88;;;;;;;;;;5042619;28;20045;-65
2022/02/07 10:57:58;;;;;;;7.75;1.48;;;;;;;;;;5040353;28;20413;-65
2022/02/07 11:00:33;;;;;;;8.15;1.50;;;;;;;;;;5045363;28;20147;-66
2022/02/07 11:03:21;;;;;;;10.63;1.85;;;;;;;;;;5040400;28;20517;-66
2022/02/07 11:05:51;;;;;;;7.57;1.48;;;;;;;;;;5041220;28;20084;-66
2022/02/07 11:08:29;;;;;;;8.55;2.47;;;;;;;;;;5039366;28;20512;-66
2022/02/07 11:21:58;;;;;;;4.28;1.20;;;;;;;;;;5044035;28;20080;-69
2022/02/07 11:26:54;;;;;;;;;;;;;;;;;;5044002;28;20504;-67
2022/02/07 11:29:39;;;;;;;4.20;1.35;;;;;;;;;;5029551;28;19971;-67
2022/02/07 11:32:31;;;;;;;4.97;1.30;;;;;;;;;;5043939;28;20084;-67
2022/02/07 11:35:02;;;;;;;6.13;1.05;;;;;;;;;;5039822;28;20139;-67
2022/02/07 11:37:36;;;;;;;3.30;0.77;;;;;;;;;;5043874;28;20131;-67
2022/02/07 11:40:21;;;;;;;1.70;0.60;;;;;;;;;;5038748;28;20080;-67
2022/02/07 11:43:07;;;;;;;4.22;0.80;;;;;;;;;;5026905;28;20080;-67
2022/02/07 11:46:06;;;;;;;2.42;1.05;;;;;;;;;;5041003;28;20081;-67
2022/02/07 11:48:50;;;;;;;2.45;0.90;;;;;;;;;;5030268;28;20073;-67
2022/02/07 11:51:22;;;;;;;4.72;1.23;;;;;;;;;;5041837;28;20077;-67
2022/02/07 11:53:52;;;;;;;3.80;1.23;;;;;;;;;;5044222;28;20053;-67
2022/02/07 11:56:20;;;;;;;4.43;1.20;;;;;;;;;;5046601;28;20081;-67
2022/02/07 11:58:52;;;;;;;1.85;0.80;;;;;;;;;;5041351;28;20147;-67
2022/02/07 12:01:42;;;;;;;4.22;1.05;;;;;;;;;;5039342;28;20127;-67
2022/02/07 12:04:09;;;;;;;6.28;1.00;;;;;;;;;;5039010;28;20085;-67
2022/02/07 12:06:35;;;;;;;3.90;1.15;;;;;;;;;;5040982;28;20528;-67
2022/02/07 12:09:03;;;;;;;3.35;1.15;;;;;;;;;;5039580;28;20546;-66
2022/02/07 12:11:43;;;;;;;4.70;1.20;;;;;;;;;;5040527;28;20088;-67
2022/02/07 12:14:30;;;;;;;1.90;0.88;;;;;;;;;;5043767;28;20085;-67
2022/02/07 12:16:57;;;;;;;4.05;1.20;;;;;;;;;;5041306;28;20073;-66
2022/02/07 12:19:37;;;;;;;3.92;1.17;;;;;;;;;;5040747;28;20135;-67
2022/02/07 12:22:13;;;;;;;5.13;1.17;;;;;;;;;;5047738;28;20128;-66
2022/02/07 12:24:57;;;;;;;1.90;0.90;;;;;;;;;;5043459;28;20049;-67
2022/02/07 12:27:27;;;;;;;4.13;0.80;;;;;;;;;;5046433;28;20537;-67
2022/02/07 12:32:39;;;;;;;5.30;0.88;;;;;;;;;;5046727;28;20151;-66
2022/02/07 12:35:14;;;;;;;1.65;0.60;;;;;;;;;;5045345;28;20083;-66
2022/02/07 12:37:41;;;;;;;1.48;0.60;;;;;;;;;;5044598;28;20140;-66
2022/02/07 12:40:09;;;;;;;2.80;0.60;;;;;;;;;;5040616;28;20088;-66
2022/02/07 12:42:43;;;;;;;1.67;0.70;;;;;;;;;;5044510;28;20069;-67
2022/02/07 12:45:09;;;;;;;;;;;;;;;;;;5042922;28;20045;-66
2022/02/07 12:47:38;;;;;;;3.53;0.75;;;;;;;;;;5044113;28;20324;-66
2022/02/07 12:50:18;;;;;;;2.88;0.85;;;;;;;;;;5039380;28;20543;-67
2022/02/07 12:52:44;;;;;;;3.08;0.68;;;;;;;;;;5041775;28;20084;-66
2022/02/07 12:55:15;;;;;;;6.35;1.05;;;;;;;;;;5046905;28;20073;-66
2022/02/07 12:57:48;;;;;;;1.65;0.70;;;;;;;;;;5044339;28;20464;-67
2022/02/07 13:00:18;;;;;;;3.50;0.82;;;;;;;;;;5044665;28;20088;-67
2022/02/07 13:02:46;;;;;;;5.13;0.82;;;;;;;;;;5040293;28;20116;-66
2022/02/07 13:05:20;;;;;;;3.45;0.98;;;;;;;;;;5024612;28;20084;-66
2022/02/07 13:07:50;;;;;;;2.17;0.68;;;;;;;;;;5024646;28;20132;-66
2022/02/07 13:10:21;;;;;;;8.23;1.13;;;;;;;;;;5024116;28;20080;-66
2022/02/07 13:15:29;;;;;;;5.18;1.08;;;;;;;;;;5026150;28;20135;-66
2022/02/07 13:18:04;;;;;;;4.53;0.80;;;;;;;;;;5021450;28;20095;-66
2022/02/07 13:20:32;;;;;;;6.95;1.13;;;;;;;;;;5024464;28;20141;-66
2022/02/07 13:23:15;;;;;;;4.50;0.70;;;;;;;;;;5024862;28;20184;-66
2022/02/07 13:25:46;;;;;;;3.08;1.05;;;;;;;;;;5023519;28;20156;-66
2022/02/07 13:28:18;;;;;;;3.45;0.80;;;;;;;;;;5023959;28;20072;-66
2022/02/07 13:30:58;;;;;;;3.53;0.85;;;;;;;;;;5019465;28;20141;-66
2022/02/07 13:33:26;;;;;;;2.20;0.93;;;;;;;;;;5021506;28;20053;-66
2022/02/07 13:35:56;;;;;;;4.70;0.90;;;;;;;;;;5025812;28;20073;-67
2022/02/07 13:38:23;;;;;;;5.85;0.95;;;;;;;;;;5024440;28;20476;-66
2022/02/07 13:40:51;;;;;;;4.40;1.42;;;;;;;;;;5027244;28;20140;-66
2022/02/07 13:43:18;;;;;;;;;;;;;;;;;;5023455;28;20068;-66
2022/02/07 13:45:47;;;;;;;2.88;1.08;;;;;;;;;;5020571;28;19967;-66
2022/02/07 13:48:15;;;;;;;3.55;1.20;;;;;;;;;;5021684;28;20084;-66
2022/02/07 13:50:44;;;;;;;4.47;0.93;;;;;;;;;;5021674;28;20141;-66
2022/02/07 13:53:13;;;;;;;4.68;0.93;;;;;;;;;;5018267;28;20050;-66
2022/02/07 13:55:51;;;;;;;8.73;1.17;;;;;;;;;;5022958;28;20092;-66
2022/02/07 13:58:18;;;;;;;4.10;1.40;;;;;;;;;;5021589;28;20084;-66
2022/02/07 14:00:47;;;;;;;2.22;0.95;;;;;;;;;;5025178;28;20136;-66
2022/02/07 14:03:20;;;;;;;3.58;0.90;;;;;;;;;;5020421;28;20084;-66
2022/02/07 14:05:51;;;;;;;5.43;1.00;;;;;;;;;;5017748;28;20093;-66
2022/02/07 14:08:32;;;;;;;6.20;1.00;;;;;;;;;;5020880;28;20149;-65
2022/02/07 14:10:59;;;;;;;3.90;1.05;;;;;;;;;;5022441;28;20539;-66
2022/02/07 14:13:29;;;;;;;4.60;0.90;;;;;;;;;;5018686;28;20046;-66
2022/02/07 14:15:55;;;;;;;7.30;0.82;;;;;;;;;;5021482;28;20080;-66
2022/02/07 14:18:24;;;;;;;1.98;0.73;;;;;;;;;;5022516;28;20100;-65
2022/02/07 14:20:53;;;;;;;6.32;1.10;;;;;;;;;;5024080;28;20524;-65
2022/02/07 14:23:19;;;;;;;2.72;1.00;;;;;;;;;;5028207;28;20087;-65
2022/02/07 14:25:51;;;;;;;5.28;1.13;;;;;;;;;;5018875;28;20124;-65
2022/02/07 14:28:22;;;;;;;6.07;0.95;;;;;;;;;;5020189;28;20077;-66
2022/02/07 14:30:48;;;;;;;4.97;1.40;;;;;;;;;;5022745;28;20104;-65
2022/02/07 14:33:15;;;;;;;4.60;1.30;;;;;;;;;;5018903;28;20081;-65
2022/02/07 14:35:49;;;;;;;5.40;1.20;;;;;;;;;;5023012;28;20478;-65
2022/02/07 14:38:15;;;;;;;10.88;1.52;;;;;;;;;;5025381;28;20161;-65
2022/02/07 14:40:43;;;;;;;6.28;1.50;;;;;;;;;;5021154;28;20616;-65
2022/02/07 14:43:15;;;;;;;8.05;0.82;;;;;;;;;;5017301;28;20127;-65
2022/02/07 14:45:53;;;;;;;7.00;1.13;;;;;;;;;;5021934;28;20096;-65
2022/02/07 14:48:23;;;;;;;5.10;1.48;;;;;;;;;;5018205;28;20077;-65
2022/02/07 14:50:49;;;;;;;5.20;1.13;;;;;;;;;;5020359;28;20141;-66
2022/02/07 14:53:16;;;;;;;6.60;1.70;;;;;;;;;;5010482;28;20136;-65
2022/02/07 14:55:49;;;;;;;7.53;1.10;;;;;;;;;;5023452;28;20107;-65
2022/02/07 14:58:16;;;;;;;6.03;0.88;;;;;;;;;;5023101;28;20132;-65
2022/02/07 15:00:42;;;;;;;6.05;1.50;;;;;;;;;;5020692;28;20129;-65
2022/02/07 15:03:14;;;;;;;7.78;1.30;;;;;;;;;;5023243;28;20062;-65
2022/02/07 15:05:40;;;;;;;7.35;1.88;;;;;;;;;;5024000;28;20132;-65
2022/02/07 15:08:07;;;;;;;3.08;1.00;;;;;;;;;;5024684;28;20132;-65
2022/02/07 15:10:37;;;;;;;8.00;1.50;;;;;;;;;;5022115;28;20048;-65
2022/02/07 15:13:05;;;;;;;5.75;1.42;;;;;;;;;;5021778;28;20111;-65
2022/02/07 15:15:32;;;;;;;12.73;2.17;;;;;;;;;;5021802;28;20081;-65
2022/02/07 15:18:05;;;;;;;4.60;1.30;;;;;;;;;;5021370;28;20077;-65
2022/02/07 15:20:32;;;;;;;10.30;1.33;;;;;;;;;;5023502;28;20046;-65
2022/02/07 15:22:58;;;;;;;5.18;1.42;;;;;;;;;;5021034;28;20116;-65
2022/02/07 15:25:34;;;;;;;6.50;1.50;;;;;;;;;;5022453;28;20103;-65
2022/02/07 15:28:05;;;;;;;4.80;1.08;;;;;;;;;;5008561;28;20089;-65
2022/02/07 15:30:45;;;;;;;14.82;2.00;;;;;;;;;;5019085;28;20140;-65
2022/02/07 15:33:16;;;;;;;6.95;1.38;;;;;;;;;;5021560;28;20081;-65
2022/02/07 15:35:54;;;;;;;8.50;1.70;;;;;;;;;;5017634;28;20064;-65
2022/02/07 15:38:25;;;;;;;7.07;1.75;;;;;;;;;;5021189;28;20104;-65
2022/02/07 15:40:52;;;;;;;7.75;1.55;;;;;;;;;;5019954;28;20084;-65
2022/02/07 15:43:19;;;;;;;4.53;1.15;;;;;;;;;;5021604;28;20107;-65
2022/02/07 15:45:46;;;;;;;8.57;1.73;;;;;;;;;;5023774;28;20085;-65
2022/02/07 15:48:13;;;;;;;;;;;;;;;;;;5019680;28;20081;-65
2022/02/07 15:50:41;;;;;;;5.70;1.88;;;;;;;;;;5024889;28;20697;-65
2022/02/07 15:53:07;;;;;;;;;;;;;;;;;;5021652;28;20053;-65
2022/02/07 15:55:34;;;;;;;5.80;1.35;;;;;;;;;;5011654;28;20012;-65
2022/02/07 15:58:01;;;;;;;2.35;1.20;;;;;;;;;;5025429;28;20088;-65
2022/02/07 16:00:28;;;;;;;5.72;1.33;;;;;;;;;;5027160;28;20588;-65
2022/02/07 16:02:54;;;;;;;3.78;1.25;;;;;;;;;;5024464;28;20129;-65
2022/02/07 16:05:22;;;;;;;5.90;1.17;;;;;;;;;;5023969;28;20050;-65
2022/02/07 16:07:48;;;;;;;6.30;1.65;;;;;;;;;;5022952;28;20103;-64
2022/02/07 16:10:16;;;;;;;;;;;;;;;;;;5024783;28;20057;-65
2022/02/07 16:12:44;;;;;;;12.52;1.70;;;;;;;;;;5024429;28;19964;-65
2022/02/07 16:15:12;;;;;;;8.48;1.58;;;;;;;;;;5021754;28;20128;-64
2022/02/07 16:17:39;;;;;;;6.97;1.65;;;;;;;;;;5025071;28;20132;-64
2022/02/07 16:20:07;;;;;;;4.90;1.40;;;;;;;;;;5024102;28;20056;-65
2022/02/07 16:22:33;;;;;;;5.55;1.38;;;;;;;;;;5024938;28;20284;-64
2022/02/07 16:25:00;;;;;;;9.70;1.70;;;;;;;;;;5023769;28;20138;-64
2022/02/07 16:27:27;;;;;;;7.50;2.00;;;;;;;;;;5023575;28;20132;-64
2022/02/07 16:29:53;;;;;;;5.80;1.60;;;;;;;;;;5021512;28;20077;-64
2022/02/07 16:32:20;;;;;;;5.90;1.63;;;;;;;;;;5021756;28;20372;-64
2022/02/07 16:34:46;;;;;;;6.03;1.67;;;;;;;;;;5023020;28;20137;-64
2022/02/07 16:37:13;;;;;;;5.38;1.52;;;;;;;;;;5023615;28;20331;-64
2022/02/07 16:39:43;;;;;;;5.45;1.45;;;;;;;;;;5021761;28;20125;-64
2022/02/07 16:42:11;;;;;;;8.82;1.90;;;;;;;;;;5028429;28;20129;-64
2022/02/07 16:44:38;;;;;;;9.13;2.75;;;;;;;;;;5026440;28;20576;-64
2022/02/07 16:47:11;;;;;;;8.43;1.75;;;;;;;;;;5026737;28;20143;-64
2022/02/07 16:49:39;;;;;;;3.72;1.60;;;;;;;;;;5023724;28;20053;-64
2022/02/07 16:52:05;;;;;;;8.18;1.63;;;;;;;;;;5023434;28;20077;-64
2022/02/07 16:54:35;;;;;;;6.82;1.85;;;;;;;;;;5026962;28;20111;-64
2022/02/07 16:57:01;;;;;;;2.93;1.40;;;;;;;;;;5021155;28;20085;-64
2022/02/07 16:59:28;;;;;;;5.28;2.00;;;;;;;;;;5025623;28;20403;-63
2022/02/07 17:02:00;;;;;;;12.98;1.90;;;;;;;;;;5024961;28;20081;-64
2022/02/07 17:04:31;;;;;;;7.03;2.05;;;;;;;;;;5017425;28;20068;-64
2022/02/07 17:07:03;;;;;;;3.75;1.38;;;;;;;;;;5040897;28;20056;-64
2022/02/07 17:09:30;;;;;;;16.13;7.75;;;;;;;;;;5044211;28;20127;-64
2022/02/07 17:11:56;;;;;;;8.88;5.53;;;;;;;;;;5041075;28;20786;-64
2022/02/07 17:14:23;;;;;;;7.40;2.08;;;;;;;;;;5043232;28;20139;-64
2022/02/07 17:16:50;;;;;;;7.27;1.50;;;;;;;;;;5040283;28;20580;-64
2022/02/07 17:19:17;;;;;;;12.05;1.98;;;;;;;;;;5042658;28;20045;-64
2022/02/07 17:21:43;;;;;;;9.25;2.00;;;;;;;;;;5043144;28;20168;-64
2022/02/07 17:24:17;;;;;;;8.00;1.60;;;;;;;;;;5043029;28;20049;-64
2022/02/07 17:26:43;;;;;;;6.40;1.45;;;;;;;;;;5041752;28;20091;-64
2022/02/07 17:29:10;;;;;;;3.58;1.60;;;;;;;;;;5040511;28;20131;-64
2022/02/07 17:31:37;;;;;;;8.25;1.85;;;;;;;;;;5040615;28;20085;-64